CYMA

Mayo Airport

Mayo, , Canada
METAR CYMA 232200Z 23009G15KT 20SM FEW018 SCT085 BKN180 M06/M11 A2977 RMK SC2AC2AC1 SENT VIA CYQH SLP126
Observed Flight Rules
Feb-23 @ 22:00 UTC (35 minutes ago) Visual Flight Rules
Wind Visibility Clouds
230° at 9 knots
 Gusting to 15 knots
20 miles
  • Few at 1,800' AGL
  • Scattered at 8,500' AGL
  • Broken at 18,000' AGL
Temperatures Readings
Current -6°C / 21°F
Dewpoint -11°C / 12°F
Humidity 68%
Altimeter 29.77" Hg
Pressure 1012.6 hPa
Elevation 504
METAR CYMA 232200Z 23009G15KT 20SM FEW018 SCT085 BKN180 M06/M11 A2977 RMK SC2AC2AC1 SENT VIA CYQH SLP126
Observed Flight Rules
Feb-23 @ 22:00 UTC
(35 minutes ago)
VFR
Wind Visibility
230° at 9 knots
 Gusting to 15 knots
20 miles
Clouds
  • Few at 1,800' AGL
  • Scattered at 8,500' AGL
  • Broken at 18,000' AGL
Temperature Dewpoint
-6°C / 21°F -11°C / 12°F
Humidity Altimeter Pressure
68% 29.77" Hg 1012.6 hPa